createdAt,value
2018-11-12T00:02:11.057Z,101718.23
2018-11-12T00:04:38.832Z,101725.80
2018-11-12T00:07:07.746Z,101719.31
2018-11-12T00:09:36.068Z,101722.66
2018-11-12T00:12:04.403Z,101736.74
2018-11-12T00:14:32.180Z,101740.78
2018-11-12T00:17:01.099Z,101743.17
2018-11-12T00:19:29.437Z,101754.03
2018-11-12T00:21:57.272Z,101765.09
2018-11-12T00:24:25.528Z,101764.73
2018-11-12T00:26:54.438Z,101765.07
2018-11-12T00:29:22.764Z,101759.23
2018-11-12T00:31:50.519Z,101765.24
2018-11-12T00:34:18.882Z,101774.23
2018-11-12T00:36:47.788Z,101767.75
2018-11-12T00:39:15.536Z,101762.39
2018-11-12T00:41:44.440Z,101753.44
2018-11-12T00:44:12.190Z,101749.14
2018-11-12T00:46:40.521Z,101742.89
2018-11-12T00:49:09.444Z,101744.38
2018-11-12T00:51:37.180Z,101735.87
2018-11-12T00:54:05.514Z,101737.28
2018-11-12T00:56:34.428Z,101735.05
2018-11-12T00:59:02.178Z,101725.95
2018-11-12T01:01:31.088Z,101726.21
2018-11-12T01:03:59.480Z,101722.30
2018-11-12T01:06:27.188Z,101727.90
2018-11-12T01:08:56.110Z,101727.35
2018-11-12T01:11:24.453Z,101730.59
2018-11-12T01:13:52.187Z,101737.22
2018-11-12T01:16:20.627Z,101735.78
2018-11-12T01:18:48.891Z,101729.52
2018-11-12T01:21:17.214Z,101729.98
2018-11-12T01:23:45.588Z,101730.80
2018-11-12T01:26:13.860Z,101734.94
2018-11-12T01:28:42.762Z,101734.58
2018-11-12T01:31:11.094Z,101735.89
2018-11-12T01:33:38.828Z,101739.72
2018-11-12T01:36:07.739Z,101734.73
2018-11-12T01:38:36.065Z,101732.63
2018-11-12T01:41:04.385Z,101727.03
2018-11-12T01:43:32.709Z,101725.60
2018-11-12T01:46:01.027Z,101718.91
2018-11-12T01:48:29.358Z,101715.65
2018-11-12T01:50:57.693Z,101729.38
2018-11-12T01:53:26.014Z,101722.83
2018-11-12T01:55:53.757Z,101723.54
2018-11-12T01:58:23.562Z,101723.62
2018-11-12T02:00:51.311Z,101726.30
2018-11-12T02:03:20.269Z,101725.14
2018-11-12T02:05:48.561Z,101732.95
2018-11-12T02:08:16.884Z,101734.30
2018-11-12T02:10:45.214Z,101732.57
2018-11-12T02:13:12.951Z,101736.13
2018-11-12T02:15:41.858Z,101740.14
2018-11-12T02:18:09.634Z,101735.22
2018-11-12T02:20:37.958Z,101743.96
2018-11-12T02:23:06.286Z,101742.55
2018-11-12T02:25:35.183Z,101742.04
2018-11-12T02:28:03.515Z,101737.66
2018-11-12T02:30:31.906Z,101734.64
2018-11-12T02:33:00.204Z,101730.72
2018-11-12T02:35:28.454Z,101748.11
2018-11-12T02:37:56.836Z,101742.98
2018-11-12T02:40:24.582Z,101727.12
2018-11-12T02:42:52.905Z,101725.61
2018-11-12T02:45:21.811Z,101721.51
2018-11-12T02:47:49.561Z,101720.54
2018-11-12T02:50:18.473Z,101725.67
2018-11-12T02:52:46.787Z,101733.13
2018-11-12T02:55:15.105Z,101740.91
2018-11-12T02:57:43.440Z,101745.80
2018-11-12T03:00:11.771Z,101758.97
2018-11-12T03:02:40.086Z,101770.42
2018-11-12T03:05:08.413Z,101767.55
2018-11-12T03:07:36.808Z,101767.14
2018-11-12T03:10:05.068Z,101767.02
2018-11-12T03:12:33.398Z,101765.95
2018-11-12T03:15:01.719Z,101758.70
2018-11-12T03:17:29.488Z,101757.34
2018-11-12T03:19:58.442Z,101759.95
2018-11-12T03:22:26.184Z,101760.62
2018-11-12T03:24:55.099Z,101768.16
2018-11-12T03:27:23.419Z,101764.25
2018-11-12T03:29:51.736Z,101762.67
2018-11-12T03:32:19.482Z,101762.94
2018-11-12T03:34:48.378Z,101772.85
2018-11-12T03:37:16.711Z,101777.15
2018-11-12T03:39:44.483Z,101788.02
2018-11-12T03:42:13.375Z,101795.16
2018-11-12T03:44:41.692Z,101789.29
2018-11-12T03:47:09.432Z,101793.48
2018-11-12T03:49:38.345Z,101791.94
2018-11-12T03:52:06.090Z,101794.46
2018-11-12T03:54:34.417Z,101798.19
2018-11-12T03:57:02.743Z,101797.70
2018-11-12T03:59:31.072Z,101796.49
2018-11-12T04:01:59.979Z,101784.58
2018-11-12T04:04:28.308Z,101779.55
2018-11-12T04:06:56.074Z,101764.46
2018-11-12T04:09:24.392Z,101773.45
2018-11-12T04:11:52.716Z,101789.53
2018-11-12T04:14:21.643Z,101782.45
2018-11-12T04:16:49.380Z,101785.91
2018-11-12T04:19:17.709Z,101789.00
2018-11-12T04:21:46.658Z,101794.06
2018-11-12T04:24:14.407Z,101785.92
2018-11-12T04:26:44.048Z,101787.62
2018-11-12T04:29:12.373Z,101784.42
2018-11-12T04:31:40.695Z,101779.62
2018-11-12T04:34:09.029Z,101777.75
2018-11-12T04:36:37.346Z,101774.62
2018-11-12T04:39:05.089Z,101773.40
2018-11-12T04:41:33.414Z,101779.34
2018-11-12T04:44:02.318Z,101777.52
2018-11-12T04:46:30.643Z,101776.64
2018-11-12T04:48:58.977Z,101777.62
2018-11-12T04:51:26.724Z,101768.23
2018-11-12T04:53:55.636Z,101765.84
2018-11-12T04:56:23.965Z,101764.95
2018-11-12T04:58:52.319Z,101761.11
2018-11-12T05:01:20.058Z,101753.86
2018-11-12T05:03:48.979Z,101756.68
2018-11-12T05:06:17.309Z,101759.92
2018-11-12T05:08:45.631Z,101766.03
2018-11-12T05:11:13.988Z,101757.45
2018-11-12T05:13:42.901Z,101763.71
2018-11-12T05:16:10.645Z,101777.13
2018-11-12T05:18:39.550Z,101786.96
2018-11-12T05:21:07.882Z,101794.59
2018-11-12T05:23:35.670Z,101797.56
2018-11-12T05:26:04.574Z,101795.69
2018-11-12T05:28:32.900Z,101804.06
2018-11-12T05:31:00.645Z,101809.87
2018-11-12T05:33:28.977Z,101816.97
2018-11-12T05:35:57.300Z,101823.57
2018-11-12T05:38:26.247Z,101818.98
2018-11-12T05:40:54.551Z,101812.95
2018-11-12T05:43:22.296Z,101815.02
2018-11-12T05:45:51.212Z,101805.38
2018-11-12T05:48:19.557Z,101799.17
2018-11-12T05:50:47.300Z,101798.72
2018-11-12T05:53:15.630Z,101811.24
2018-11-12T05:55:44.550Z,101816.08
2018-11-12T05:58:12.302Z,101820.13
2018-11-12T06:00:41.957Z,101812.95
2018-11-12T06:03:10.877Z,101813.86
2018-11-12T06:05:38.629Z,101814.02
2018-11-12T06:08:06.999Z,101818.17
2018-11-12T06:10:35.861Z,101821.54
2018-11-12T06:13:03.607Z,101826.73
2018-11-12T06:15:31.932Z,101835.95
2018-11-12T06:18:00.263Z,101839.56
2018-11-12T06:20:28.595Z,101846.95
2018-11-12T06:22:57.505Z,101849.19
2018-11-12T06:25:25.857Z,101850.30
2018-11-12T06:27:54.213Z,101853.03
2018-11-12T06:30:21.968Z,101848.57
2018-11-12T06:32:50.296Z,101843.61
2018-11-12T06:35:18.619Z,101851.20
2018-11-12T06:37:46.944Z,101858.80
2018-11-12T06:40:15.854Z,101867.11
2018-11-12T06:42:43.796Z,101874.84
2018-11-12T06:45:11.938Z,101882.98
2018-11-12T06:47:40.270Z,101884.85
2018-11-12T06:50:09.184Z,101873.17
2018-11-12T06:52:36.970Z,101874.53
2018-11-12T06:55:05.256Z,101880.14
2018-11-12T06:57:34.172Z,101870.98
2018-11-12T07:00:01.916Z,101867.27
2018-11-12T07:02:30.845Z,101884.67
2018-11-12T07:04:59.199Z,101881.97
2018-11-12T07:07:27.284Z,101875.81
2018-11-12T07:09:56.197Z,101875.59
2018-11-12T07:12:23.946Z,101873.11
2018-11-12T07:14:52.281Z,101862.77
2018-11-12T07:17:23.512Z,101864.68
2018-11-12T07:19:52.468Z,101866.53
2018-11-12T07:22:20.208Z,101865.83
2018-11-12T07:24:48.552Z,101868.27
2018-11-12T07:27:17.501Z,101859.30
2018-11-12T07:29:45.252Z,101853.89
2018-11-12T07:32:13.585Z,101854.66
2018-11-12T07:34:41.921Z,101858.69
2018-11-12T07:37:10.844Z,101862.47
2018-11-12T07:39:39.169Z,101865.41
2018-11-12T07:42:07.071Z,101870.41
2018-11-12T07:44:35.281Z,101871.97
2018-11-12T07:47:04.437Z,101872.23
2018-11-12T07:49:33.346Z,101872.45
2018-11-12T07:52:01.471Z,101869.89
2018-11-12T07:54:29.231Z,101864.12
2018-11-12T07:56:58.137Z,101862.70
2018-11-12T07:59:25.939Z,101862.91
2018-11-12T08:01:54.233Z,101865.20
2018-11-12T08:04:23.145Z,101878.09
2018-11-12T08:06:51.482Z,101886.09
2018-11-12T08:09:19.826Z,101884.22
2018-11-12T08:11:47.569Z,101885.40
2018-11-12T08:14:16.470Z,101877.30
2018-11-12T08:16:44.221Z,101881.48
2018-11-12T08:19:12.567Z,101880.59
2018-11-12T08:21:41.487Z,101882.91
2018-11-12T08:24:09.903Z,101875.11
2018-11-12T08:26:38.168Z,101872.14
2018-11-12T08:29:06.767Z,101878.69
2018-11-12T08:31:35.117Z,101885.47
2018-11-12T08:34:03.458Z,101889.88
2018-11-12T08:36:31.586Z,101895.76
2018-11-12T08:38:59.919Z,101895.67
2018-11-12T08:41:28.240Z,101899.25
2018-11-12T08:43:57.161Z,101900.22
2018-11-12T08:46:24.926Z,101901.48
2018-11-12T08:48:53.332Z,101911.79
2018-11-12T08:51:22.187Z,101912.98
2018-11-12T08:53:50.550Z,101911.56
2018-11-12T08:56:18.682Z,101910.08
2018-11-12T08:58:46.733Z,101916.34
2018-11-12T09:01:15.065Z,101922.08
2018-11-12T09:03:43.388Z,101923.22
2018-11-12T09:06:11.724Z,101936.40
2018-11-12T09:08:40.633Z,101933.55
2018-11-12T09:11:08.961Z,101939.33
2018-11-12T09:13:36.706Z,101937.63
2018-11-12T09:16:05.620Z,101925.73
2018-11-12T09:18:33.367Z,101915.23
2018-11-12T09:21:02.296Z,101927.89
2018-11-12T09:23:30.219Z,101926.62
2018-11-12T09:25:58.402Z,101929.56
2018-11-12T09:28:26.733Z,101926.79
2018-11-12T09:30:56.311Z,101936.64
2018-11-12T09:33:23.406Z,101935.50
2018-11-12T09:35:51.746Z,101927.11
2018-11-12T09:40:48.976Z,101945.95
2018-11-12T09:43:17.354Z,101952.88
2018-11-12T09:45:45.106Z,101961.11
2018-11-12T09:48:13.396Z,101957.46
2018-11-12T09:50:42.300Z,101954.47
2018-11-12T09:53:10.616Z,101944.74
2018-11-12T09:55:38.963Z,101939.23
2018-11-12T09:58:07.301Z,101929.42
2018-11-12T10:00:35.866Z,101922.88
2018-11-12T10:03:05.074Z,101914.54
2018-11-12T10:05:33.731Z,101915.64
2018-11-12T10:08:02.168Z,101920.04
2018-11-12T10:10:31.349Z,101924.44
2018-11-12T10:12:59.086Z,101924.26
2018-11-12T10:15:28.894Z,101916.05
2018-11-12T10:17:57.999Z,101914.97
2018-11-12T10:20:24.153Z,101915.42
2018-11-12T10:22:52.976Z,101916.17
2018-11-12T10:25:20.731Z,101918.30
2018-11-12T10:27:49.069Z,101920.02
2018-11-12T10:30:17.401Z,101926.70
2018-11-12T10:32:45.789Z,101928.06
2018-11-12T10:35:14.709Z,101935.03
2018-11-12T10:37:42.558Z,101927.53
2018-11-12T10:40:11.392Z,101925.70
2018-11-12T10:42:39.811Z,101912.98
2018-11-12T10:45:08.075Z,101913.31
2018-11-12T10:47:35.945Z,101904.15
2018-11-12T10:50:04.159Z,101905.52
2018-11-12T10:52:33.070Z,101903.16
2018-11-12T10:55:04.891Z,101910.47
2018-11-12T10:57:29.149Z,101907.55
2018-11-12T10:59:57.699Z,101908.71
2018-11-12T11:02:26.500Z,101913.55
2018-11-12T11:04:54.251Z,101910.55
2018-11-12T11:07:22.728Z,101900.89
2018-11-12T11:09:51.056Z,101888.38
2018-11-12T11:12:20.195Z,101887.48
2018-11-12T11:14:48.290Z,101893.78
2018-11-12T11:17:16.175Z,101899.09
2018-11-12T11:19:44.470Z,101896.82
2018-11-12T11:22:13.492Z,101888.49
2018-11-12T11:24:41.273Z,101881.14
2018-11-12T11:27:09.600Z,101890.33
2018-11-12T11:29:37.939Z,101894.78
2018-11-12T11:32:07.216Z,101900.50
2018-11-12T11:34:35.572Z,101904.41
2018-11-12T11:37:04.605Z,101895.50
2018-11-12T11:39:32.548Z,101889.84
2018-11-12T11:42:01.313Z,101879.16
2018-11-12T11:44:29.588Z,101880.72
2018-11-12T11:46:58.505Z,101878.91
2018-11-12T11:49:26.269Z,101877.12
2018-11-12T11:51:55.206Z,101876.81
2018-11-12T11:54:23.057Z,101882.42
2018-11-12T11:56:52.168Z,101889.88
2018-11-12T11:59:20.430Z,101888.27
2018-11-12T12:01:48.208Z,101886.32
2018-11-12T12:04:17.165Z,101886.97
2018-11-12T12:06:45.511Z,101884.89
2018-11-12T12:09:14.224Z,101892.98
2018-11-12T12:11:42.559Z,101890.45
2018-11-12T12:14:10.921Z,101893.75
2018-11-12T12:16:39.312Z,101895.56
2018-11-12T12:19:07.598Z,101896.75
2018-11-12T12:21:35.922Z,101897.09
2018-11-12T12:24:04.257Z,101895.81
2018-11-12T12:26:32.616Z,101893.72
2018-11-12T12:29:01.095Z,101891.16
2018-11-12T12:31:29.430Z,101893.37
2018-11-12T12:33:57.785Z,101893.93
2018-11-12T12:36:26.205Z,101895.55
2018-11-12T12:38:54.510Z,101896.17
2018-11-12T12:41:23.600Z,101896.32
2018-11-12T12:43:51.987Z,101894.63
2018-11-12T12:46:19.739Z,101886.92
2018-11-12T12:48:48.670Z,101883.59
2018-11-12T12:51:17.335Z,101889.37
2018-11-12T12:53:45.394Z,101894.81
2018-11-12T12:56:13.190Z,101893.24
2018-11-12T12:58:41.585Z,101889.61
2018-11-12T13:01:10.642Z,101892.11
2018-11-12T13:03:38.465Z,101893.09
2018-11-12T13:06:07.539Z,101895.14
2018-11-12T13:08:35.738Z,101890.47
2018-11-12T13:11:04.038Z,101886.85
2018-11-12T13:13:31.797Z,101881.86
2018-11-12T13:16:01.030Z,101881.50
2018-11-12T13:18:29.075Z,101883.91
2018-11-12T13:20:57.486Z,101883.47
2018-11-12T13:23:25.162Z,101880.75
2018-11-12T13:25:54.075Z,101883.27
2018-11-12T13:28:22.408Z,101884.53
2018-11-12T13:30:51.197Z,101883.61
2018-11-12T13:33:19.522Z,101885.60
2018-11-12T13:35:47.912Z,101884.94
2018-11-12T13:38:16.341Z,101881.00
2018-11-12T13:40:44.745Z,101874.39
2018-11-12T13:43:13.079Z,101872.96
2018-11-12T13:45:41.516Z,101869.02
2018-11-12T13:48:09.362Z,101867.84
2018-11-12T13:50:39.867Z,101867.97
2018-11-12T13:53:08.808Z,101864.37
2018-11-12T13:55:38.087Z,101861.33
2018-11-12T13:58:07.299Z,101865.76
2018-11-12T14:00:35.735Z,101861.36
2018-11-12T14:03:04.156Z,101861.13
2018-11-12T14:05:31.968Z,101867.72
2018-11-12T14:08:00.851Z,101881.09
2018-11-12T14:10:29.288Z,101879.96
2018-11-12T14:12:57.622Z,101872.45
2018-11-12T14:15:25.378Z,101872.84
2018-11-12T14:17:54.294Z,101876.45
2018-11-12T14:20:22.228Z,101869.66
2018-11-12T14:22:51.349Z,101866.91
2018-11-12T14:25:20.023Z,101867.51
2018-11-12T14:27:48.711Z,101870.50
2018-11-12T14:30:16.128Z,101869.20
2018-11-12T14:32:44.469Z,101886.66
2018-11-12T14:35:12.866Z,101878.94
2018-11-12T14:37:41.775Z,101879.89
2018-11-12T14:40:10.178Z,101880.16
2018-11-12T14:42:39.331Z,101873.08
2018-11-12T14:45:07.121Z,101869.38
2018-11-12T14:47:36.023Z,101868.32
2018-11-12T14:50:03.775Z,101872.20
2018-11-12T14:52:32.777Z,101866.63
2018-11-12T14:55:03.016Z,101865.98
2018-11-12T14:57:32.251Z,101860.53
2018-11-12T15:00:00.096Z,101874.86
2018-11-12T15:02:28.503Z,101872.37
2018-11-12T15:04:56.844Z,101854.40
2018-11-12T15:07:25.253Z,101848.86
2018-11-12T15:09:53.637Z,101849.60
2018-11-12T15:12:21.990Z,101860.90
2018-11-12T15:14:50.388Z,101860.84
2018-11-12T15:17:18.069Z,101858.62
2018-11-12T15:19:47.943Z,101864.09
2018-11-12T15:22:16.285Z,101859.17
2018-11-12T15:24:44.044Z,101857.41
2018-11-12T15:27:12.956Z,101855.05
2018-11-12T15:29:41.288Z,101851.02
2018-11-12T15:32:09.762Z,101849.56
2018-11-12T15:34:38.160Z,101849.03
2018-11-12T15:37:06.929Z,101853.42
2018-11-12T15:39:34.326Z,101849.53
2018-11-12T15:42:03.599Z,101849.70
2018-11-12T15:44:31.294Z,101852.66
2018-11-12T15:47:00.616Z,101856.80
2018-11-12T15:49:29.127Z,101852.60
2018-11-12T15:51:57.458Z,101849.75
2018-11-12T15:54:26.065Z,101846.96
2018-11-12T15:56:54.713Z,101847.36
2018-11-12T15:59:23.044Z,101851.25
2018-11-12T16:01:51.358Z,101841.05
2018-11-12T16:04:20.059Z,101830.11
2018-11-12T16:06:48.585Z,101824.99
2018-11-12T16:09:17.581Z,101821.70
2018-11-12T16:11:45.347Z,101831.42
2018-11-12T16:14:14.536Z,101827.64
2018-11-12T16:16:42.882Z,101828.10
2018-11-12T16:19:11.265Z,101824.01
2018-11-12T16:21:39.048Z,101827.38
2018-11-12T16:24:07.310Z,101828.88
2018-11-12T16:26:36.264Z,101823.22
2018-11-12T16:29:04.585Z,101816.27
2018-11-12T16:31:32.331Z,101813.30
2018-11-12T16:34:00.667Z,101808.17
2018-11-12T16:36:29.121Z,101806.97
2018-11-12T16:38:57.363Z,101803.63
2018-11-12T16:41:25.715Z,101799.89
2018-11-12T16:43:54.646Z,101803.16
2018-11-12T16:46:22.994Z,101802.17
2018-11-12T16:48:51.317Z,101813.77
2018-11-12T16:51:19.659Z,101821.03
2018-11-12T16:53:48.008Z,101821.97
2018-11-12T16:56:16.323Z,101814.98
2018-11-12T16:58:44.676Z,101810.25
2018-11-12T17:01:13.021Z,101806.40
2018-11-12T17:03:41.312Z,101801.11
2018-11-12T17:06:09.688Z,101805.05
2018-11-12T17:08:37.442Z,101810.08
2018-11-12T17:11:06.384Z,101802.96
2018-11-12T17:13:34.708Z,101805.92
2018-11-12T17:16:03.069Z,101802.73
2018-11-12T17:18:31.432Z,101801.09
2018-11-12T17:20:59.212Z,101805.50
2018-11-12T17:23:27.588Z,101803.01
2018-11-12T17:25:55.985Z,101795.41
2018-11-12T17:28:24.939Z,101789.91
2018-11-12T17:30:53.374Z,101790.19
2018-11-12T17:33:21.607Z,101787.83
2018-11-12T17:35:49.469Z,101786.94
2018-11-12T17:38:18.380Z,101783.98
2018-11-12T17:40:46.199Z,101784.35
2018-11-12T17:43:14.550Z,101782.70
2018-11-12T17:45:43.504Z,101793.67
2018-11-12T17:48:11.895Z,101786.73
2018-11-12T17:50:40.308Z,101787.31
2018-11-12T17:53:08.632Z,101783.44
2018-11-12T17:55:36.984Z,101786.14
2018-11-12T17:58:05.650Z,101778.16
2018-11-12T18:00:33.985Z,101777.47
2018-11-12T18:03:02.362Z,101779.10
2018-11-12T18:05:30.765Z,101780.33
2018-11-12T18:07:59.198Z,101781.06
2018-11-12T18:10:27.473Z,101782.95
2018-11-12T18:12:55.850Z,101784.00
2018-11-12T18:15:23.659Z,101777.66
2018-11-12T18:17:52.557Z,101769.47
2018-11-12T18:20:20.952Z,101757.50
2018-11-12T18:22:49.284Z,101757.00
2018-11-12T18:25:17.918Z,101751.39
2018-11-12T18:27:46.327Z,101740.52
2018-11-12T18:30:14.252Z,101736.32
2018-11-12T18:32:43.003Z,101733.10
2018-11-12T18:35:11.338Z,101732.38
2018-11-12T18:37:39.806Z,101737.76
2018-11-12T18:40:08.119Z,101738.39
2018-11-12T18:42:35.977Z,101730.48
2018-11-12T18:45:04.901Z,101725.73
2018-11-12T18:47:33.315Z,101725.45
2018-11-12T18:50:01.696Z,101721.35
2018-11-12T18:52:30.991Z,101724.29
2018-11-12T18:54:58.991Z,101718.41
2018-11-12T18:57:27.352Z,101705.59
2018-11-12T18:59:56.074Z,101702.17
2018-11-12T19:02:24.397Z,101703.15
2018-11-12T19:04:52.760Z,101692.23
2018-11-12T19:07:21.103Z,101703.16
2018-11-12T19:09:49.438Z,101700.55
2018-11-12T19:12:17.790Z,101699.35
2018-11-12T19:14:46.471Z,101694.42
2018-11-12T19:17:18.441Z,101697.20
2018-11-12T19:19:47.050Z,101690.67
2018-11-12T19:22:17.225Z,101674.94
2018-11-12T19:24:58.070Z,101675.70
2018-11-12T19:27:27.065Z,101680.47
2018-11-12T19:29:56.057Z,101677.27
2018-11-12T19:32:24.206Z,101685.58
2018-11-12T19:34:54.509Z,101673.84
2018-11-12T19:37:22.945Z,101674.11
2018-11-12T19:39:51.556Z,101666.56
2018-11-12T19:42:20.238Z,101671.88
2018-11-12T19:44:48.896Z,101666.91
2018-11-12T19:47:17.625Z,101653.73
2018-11-12T19:49:46.384Z,101650.34
2018-11-12T19:52:14.740Z,101645.58
2018-11-12T19:54:43.377Z,101659.41
2018-11-12T19:57:11.723Z,101649.05
2018-11-12T19:59:41.168Z,101652.10
2018-11-12T20:02:10.174Z,101653.38
2018-11-12T20:04:38.737Z,101650.66
2018-11-12T20:07:07.382Z,101646.31
2018-11-12T20:09:38.203Z,101647.77
2018-11-12T20:12:06.175Z,101666.02
2018-11-12T20:14:34.598Z,101665.23
2018-11-12T20:17:03.513Z,101675.12
2018-11-12T20:19:31.270Z,101682.39
2018-11-12T20:22:00.467Z,101693.47
2018-11-12T20:24:28.213Z,101705.39
2018-11-12T20:26:57.304Z,101705.73
2018-11-12T20:29:25.640Z,101690.91
2018-11-12T20:31:53.421Z,101685.64
2018-11-12T20:34:22.357Z,101685.41
2018-11-12T20:36:50.810Z,101683.16
2018-11-12T20:39:19.173Z,101682.30
2018-11-12T20:41:47.916Z,101681.12
2018-11-12T20:44:16.673Z,101680.48
2018-11-12T20:46:45.033Z,101672.62
2018-11-12T20:49:13.646Z,101675.05
2018-11-12T20:51:42.027Z,101669.23
2018-11-12T20:54:10.434Z,101676.11
2018-11-12T20:56:39.136Z,101666.64
2018-11-12T20:59:08.474Z,101669.60
2018-11-12T21:01:37.074Z,101663.55
2018-11-12T21:04:05.420Z,101669.92
2018-11-12T21:06:33.800Z,101667.60
2018-11-12T21:09:01.551Z,101643.11
2018-11-12T21:11:30.522Z,101634.27
2018-11-12T21:13:59.109Z,101649.84
2018-11-12T21:16:27.469Z,101631.13
2018-11-12T21:18:56.088Z,101628.85
2018-11-12T21:21:24.447Z,101629.70
2018-11-12T21:23:53.064Z,101630.17
2018-11-12T21:26:21.529Z,101618.20
2018-11-12T21:28:49.867Z,101621.53
2018-11-12T21:31:20.047Z,101616.53
2018-11-12T21:33:48.445Z,101612.85
2018-11-12T21:36:16.183Z,101622.73
2018-11-12T21:38:45.898Z,101616.98
2018-11-12T21:41:14.601Z,101609.45
2018-11-12T21:43:42.939Z,101609.98
2018-11-12T21:46:12.781Z,101604.23
2018-11-12T21:48:40.550Z,101607.72
2018-11-12T21:51:10.584Z,101609.66
2018-11-12T21:53:38.979Z,101608.95
2018-11-12T21:56:07.412Z,101594.98
2018-11-12T21:58:35.789Z,101594.99
2018-11-12T22:01:03.500Z,101584.20
2018-11-12T22:03:32.404Z,101591.95
2018-11-12T22:06:00.738Z,101599.44
2018-11-12T22:08:28.549Z,101602.28
2018-11-12T22:10:57.406Z,101599.44
2018-11-12T22:13:25.740Z,101614.56
2018-11-12T22:15:54.074Z,101607.88
2018-11-12T22:18:22.399Z,101623.00
2018-11-12T22:20:50.745Z,101625.67
2018-11-12T22:23:19.064Z,101622.59
2018-11-12T22:25:46.810Z,101616.80
2018-11-12T22:28:15.746Z,101619.80
2018-11-12T22:30:44.081Z,101623.86
2018-11-12T22:33:12.400Z,101634.10
2018-11-12T22:35:40.740Z,101633.06
2018-11-12T22:38:09.080Z,101654.00
2018-11-12T22:40:36.822Z,101641.98
2018-11-12T22:43:05.740Z,101629.47
2018-11-12T22:45:34.398Z,101632.55
2018-11-12T22:48:02.671Z,101650.63
2018-11-12T22:50:31.016Z,101632.67
2018-11-12T22:52:59.670Z,101636.70
2018-11-12T22:55:28.024Z,101629.55
2018-11-12T22:57:56.729Z,101632.23
2018-11-12T23:00:24.473Z,101629.29
2018-11-12T23:02:53.433Z,101643.11
2018-11-12T23:05:21.764Z,101639.05
2018-11-12T23:07:50.099Z,101629.51
2018-11-12T23:10:18.439Z,101657.65
2018-11-12T23:12:47.242Z,101638.58
2018-11-12T23:15:14.767Z,101639.31
2018-11-12T23:17:43.110Z,101637.20
2018-11-12T23:20:11.842Z,101644.05
2018-11-12T23:22:39.761Z,101642.92
2018-11-12T23:25:08.688Z,101651.21
2018-11-12T23:27:36.440Z,101644.79
2018-11-12T23:30:04.773Z,101640.52
2018-11-12T23:32:33.109Z,101642.39
2018-11-12T23:35:02.150Z,101644.23
2018-11-12T23:37:30.207Z,101648.27
2018-11-12T23:39:59.123Z,101653.44
2018-11-12T23:42:27.387Z,101659.92
2018-11-12T23:44:55.202Z,101637.64
2018-11-12T23:47:24.114Z,101631.48
2018-11-12T23:49:52.442Z,101630.39
2018-11-12T23:52:20.198Z,101638.51
2018-11-12T23:54:48.705Z,101620.37
2018-11-12T23:57:17.499Z,101615.97
2018-11-12T23:59:45.270Z,101610.66
